createdAt,value
2022-11-12T00:01:29.264Z,0.82
2022-11-12T00:04:23.683Z,1.08
2022-11-12T00:07:18.081Z,0.70
2022-11-12T00:10:13.035Z,0.95
2022-11-12T00:13:07.512Z,0.70
2022-11-12T00:16:02.031Z,2.83
2022-11-12T00:18:56.368Z,3.95
2022-11-12T00:21:50.879Z,1.70
2022-11-12T00:24:45.282Z,1.23
2022-11-12T00:27:39.779Z,0.90
2022-11-12T00:30:34.255Z,0.65
2022-11-12T00:33:28.709Z,3.03
2022-11-12T00:36:23.261Z,2.70
2022-11-12T00:39:17.744Z,1.17
2022-11-12T00:42:12.533Z,1.73
2022-11-12T00:45:07.508Z,0.50
2022-11-12T00:48:01.924Z,2.15
2022-11-12T00:51:05.846Z,2.42
2022-11-12T00:54:00.312Z,3.28
2022-11-12T00:56:54.680Z,2.42
2022-11-12T00:59:49.085Z,0.80
2022-11-12T01:02:47.652Z,4.35
2022-11-12T01:05:45.002Z,2.80
2022-11-12T01:08:39.954Z,3.55
2022-11-12T01:11:34.353Z,1.73
2022-11-12T01:14:28.846Z,1.20
2022-11-12T01:17:23.208Z,0.93
2022-11-12T01:20:17.957Z,1.48
2022-11-12T01:23:12.303Z,2.42
2022-11-12T01:26:12.374Z,3.38
2022-11-12T01:29:07.395Z,1.63
2022-11-12T01:32:01.779Z,2.13
2022-11-12T01:34:56.169Z,2.17
2022-11-12T01:37:51.377Z,5.38
2022-11-12T01:40:45.800Z,2.20
2022-11-12T01:43:40.611Z,2.67
2022-11-12T01:46:36.134Z,1.10
2022-11-12T01:49:41.637Z,2.30
2022-11-12T01:52:52.499Z,3.17
2022-11-12T01:55:47.253Z,1.52
2022-11-12T01:58:42.540Z,3.33
2022-11-12T02:01:39.675Z,1.55
2022-11-12T02:04:36.224Z,1.65
2022-11-12T02:07:31.310Z,0.90
2022-11-12T02:10:25.742Z,0.68
2022-11-12T02:13:39.489Z,0.60
2022-11-12T02:16:40.515Z,1.50
2022-11-12T02:19:39.577Z,2.40
2022-11-12T02:22:33.948Z,0.70
2022-11-12T02:25:30.145Z,2.92
2022-11-12T02:28:24.978Z,0.63
2022-11-12T02:31:19.613Z,0.93
2022-11-12T02:34:14.103Z,1.05
2022-11-12T02:37:09.636Z,1.08
2022-11-12T02:40:04.011Z,0.93
2022-11-12T02:42:58.476Z,1.30
2022-11-12T02:45:52.941Z,0.45
2022-11-12T02:48:48.041Z,1.08
2022-11-12T02:51:42.375Z,1.48
2022-11-12T02:54:36.802Z,0.68
2022-11-12T02:57:31.553Z,0.43
2022-11-12T03:00:25.999Z,0.95
2022-11-12T03:03:20.795Z,2.17
2022-11-12T03:06:15.544Z,0.57
2022-11-12T03:09:09.910Z,0.30
2022-11-12T03:12:04.367Z,1.33
2022-11-12T03:14:58.714Z,0.80
2022-11-12T03:17:53.362Z,0.63
2022-11-12T03:20:47.816Z,1.27
2022-11-12T03:23:42.233Z,0.20
2022-11-12T03:26:36.740Z,0.30
2022-11-12T03:29:31.414Z,0.52
2022-11-12T03:32:25.833Z,0.82
2022-11-12T03:35:20.325Z,1.10
2022-11-12T03:38:14.995Z,0.50
2022-11-12T03:41:09.439Z,0.40
2022-11-12T03:44:03.894Z,2.53
2022-11-12T03:46:58.501Z,0.80
2022-11-12T03:49:52.956Z,0.52
2022-11-12T03:52:49.024Z,1.23
2022-11-12T03:55:43.585Z,0.43
2022-11-12T03:58:37.945Z,0.88
2022-11-12T04:01:32.489Z,1.75
2022-11-12T04:04:46.695Z,0.82
2022-11-12T04:07:59.142Z,0.52
2022-11-12T04:10:54.232Z,1.02
2022-11-12T04:13:48.872Z,0.47
2022-11-12T04:17:01.558Z,0.70
2022-11-12T04:20:14.249Z,2.00
2022-11-12T04:23:08.706Z,0.47
2022-11-12T04:26:21.203Z,0.45
2022-11-12T04:29:37.392Z,1.40
2022-11-12T04:32:34.378Z,0.50
2022-11-12T04:35:29.516Z,1.00
2022-11-12T04:38:24.289Z,0.50
2022-11-12T04:41:37.179Z,0.60
2022-11-12T04:44:49.620Z,0.50
2022-11-12T04:47:47.568Z,0.80
2022-11-12T04:50:43.318Z,0.52
2022-11-12T04:53:37.755Z,0.60
2022-11-12T04:56:32.112Z,0.65
2022-11-12T04:59:26.853Z,0.57
2022-11-12T05:02:21.395Z,1.00
2022-11-12T05:05:15.871Z,1.80
2022-11-12T05:08:10.331Z,2.15
2022-11-12T05:11:07.565Z,1.05
2022-11-12T05:14:05.983Z,1.98
2022-11-12T05:17:00.689Z,1.67
2022-11-12T05:19:55.121Z,2.45
2022-11-12T05:23:04.945Z,2.53
2022-11-12T05:26:00.903Z,0.93
2022-11-12T05:28:55.702Z,5.35
2022-11-12T05:31:50.074Z,5.63
2022-11-12T05:34:44.911Z,7.88
2022-11-12T05:37:39.314Z,1.92
2022-11-12T05:40:33.757Z,3.28
2022-11-12T05:43:28.101Z,2.75
2022-11-12T05:46:22.562Z,1.70
2022-11-12T05:49:17.098Z,1.55
2022-11-12T05:52:11.597Z,1.60
2022-11-12T05:55:06.080Z,0.43
2022-11-12T05:58:05.909Z,0.88
2022-11-12T06:01:01.176Z,0.70
2022-11-12T06:03:55.866Z,1.30
2022-11-12T06:06:50.292Z,1.67
2022-11-12T06:09:45.823Z,1.08
2022-11-12T06:12:40.253Z,0.75
2022-11-12T06:15:39.142Z,0.50
2022-11-12T06:18:33.867Z,1.30
2022-11-12T06:21:29.005Z,0.30
2022-11-12T06:24:23.768Z,0.65
2022-11-12T06:27:18.152Z,0.20
2022-11-12T06:30:12.984Z,0.60
2022-11-12T06:33:07.484Z,0.80
2022-11-12T06:36:06.738Z,1.63
2022-11-12T06:39:01.154Z,2.45
2022-11-12T06:41:56.108Z,2.00
2022-11-12T06:44:50.660Z,0.40
2022-11-12T06:47:45.099Z,0.82
2022-11-12T06:50:39.463Z,1.02
2022-11-12T06:53:33.917Z,0.10
2022-11-12T06:56:28.304Z,0.55
2022-11-12T06:59:22.655Z,0.20
2022-11-12T07:02:17.074Z,0.38
2022-11-12T07:05:11.467Z,0.20
2022-11-12T07:08:09.663Z,0.30
2022-11-12T07:11:04.298Z,0.30
2022-11-12T07:13:58.761Z,0.20
2022-11-12T07:16:53.124Z,0.20
2022-11-12T07:19:47.879Z,0.10
2022-11-12T07:22:42.376Z,0.30
2022-11-12T07:25:36.808Z,1.80
2022-11-12T07:28:32.115Z,0.40
2022-11-12T07:31:27.170Z,0.20
2022-11-12T07:34:21.552Z,0.10
2022-11-12T07:37:15.921Z,0.10
2022-11-12T07:40:10.619Z,0.00
2022-11-12T07:43:05.208Z,0.60
2022-11-12T07:46:10.056Z,0.10
2022-11-12T07:49:05.155Z,0.20
2022-11-12T07:51:59.604Z,0.30
2022-11-12T07:54:53.932Z,0.13
2022-11-12T07:57:48.428Z,0.20
2022-11-12T08:00:42.874Z,0.38
2022-11-12T08:03:37.636Z,0.25
2022-11-12T08:06:33.290Z,0.30
2022-11-12T08:09:27.628Z,0.17
2022-11-12T08:12:22.105Z,0.10
2022-11-12T08:15:16.623Z,0.10
2022-11-12T08:18:11.099Z,0.20
2022-11-12T08:21:07.804Z,2.05
2022-11-12T08:24:02.279Z,0.10
2022-11-12T08:26:56.684Z,0.10
2022-11-12T08:29:51.132Z,0.10
2022-11-12T08:32:45.504Z,0.20
2022-11-12T08:35:40.946Z,1.63
2022-11-12T08:38:35.725Z,1.98
2022-11-12T08:41:30.273Z,0.30
2022-11-12T08:44:24.666Z,0.32
2022-11-12T08:47:19.310Z,0.20
2022-11-12T08:50:16.559Z,0.13
2022-11-12T08:56:06.506Z,0.20
2022-11-12T08:59:03.820Z,0.30
2022-11-12T09:02:01.545Z,0.32
2022-11-12T09:04:56.113Z,1.85
2022-11-12T09:07:57.935Z,0.20
2022-11-12T09:10:53.590Z,0.28
2022-11-12T09:13:48.051Z,0.28
2022-11-12T09:16:42.575Z,0.10
2022-11-12T09:19:42.689Z,0.30
2022-11-12T09:22:37.950Z,0.20
2022-11-12T09:25:32.594Z,0.10
2022-11-12T09:28:27.830Z,0.25
2022-11-12T09:31:22.551Z,0.22
2022-11-12T09:34:17.022Z,0.50
2022-11-12T09:37:11.430Z,0.00
2022-11-12T09:40:07.262Z,0.30
2022-11-12T09:43:03.028Z,0.20
2022-11-12T09:49:31.892Z,0.40
2022-11-12T09:52:31.512Z,0.20
2022-11-12T09:55:39.887Z,0.10
2022-11-12T09:58:34.364Z,0.38
2022-11-12T10:02:24.654Z,0.00
2022-11-12T10:06:08.578Z,0.10
2022-11-12T10:09:32.470Z,0.10
2022-11-12T10:13:06.566Z,0.10
2022-11-12T10:16:47.285Z,0.80
2022-11-12T10:20:06.076Z,0.10
2022-11-12T10:23:23.862Z,0.10
2022-11-12T10:26:21.865Z,0.17
2022-11-12T10:29:37.913Z,0.17
2022-11-12T10:32:32.430Z,0.10
2022-11-12T10:35:26.933Z,0.10
2022-11-12T10:38:29.201Z,0.10
2022-11-12T10:41:32.078Z,0.10
2022-11-12T10:44:29.097Z,0.10
2022-11-12T10:47:44.015Z,0.15
2022-11-12T10:50:47.347Z,0.20
2022-11-12T10:53:42.584Z,0.10
2022-11-12T10:56:37.002Z,0.10
2022-11-12T10:59:31.429Z,0.15
2022-11-12T11:02:25.895Z,0.43
2022-11-12T11:05:39.850Z,0.10
2022-11-12T11:08:43.101Z,0.20
2022-11-12T11:11:37.586Z,0.17
2022-11-12T11:14:34.611Z,0.10
2022-11-12T11:17:29.026Z,0.30
2022-11-12T11:20:26.238Z,0.30
2022-11-12T11:26:39.042Z,0.30
2022-11-12T11:29:51.656Z,0.57
2022-11-12T11:33:13.713Z,0.20
2022-11-12T11:37:00.039Z,0.10
2022-11-12T11:40:18.164Z,0.20
2022-11-12T11:43:40.118Z,0.20
2022-11-12T11:47:00.744Z,0.10
2022-11-12T11:50:21.687Z,0.43
2022-11-12T11:53:23.272Z,0.10
2022-11-12T11:56:31.285Z,0.30
2022-11-12T11:59:52.528Z,0.10
2022-11-12T12:03:00.262Z,0.20
2022-11-12T12:09:25.871Z,0.25
2022-11-12T12:12:41.549Z,0.80
2022-11-12T12:15:59.881Z,0.30
2022-11-12T12:19:08.738Z,1.17
2022-11-12T12:22:06.264Z,0.10
2022-11-12T12:25:12.786Z,0.30
2022-11-12T12:28:36.227Z,0.45
2022-11-12T12:31:38.196Z,0.30
2022-11-12T12:34:39.168Z,0.68
2022-11-12T12:37:53.041Z,0.40
2022-11-12T12:41:03.150Z,0.20
2022-11-12T12:44:06.490Z,0.10
2022-11-12T12:47:02.817Z,0.15
2022-11-12T12:49:58.217Z,0.23
2022-11-12T12:53:17.000Z,0.25
2022-11-12T12:56:34.386Z,0.30
2022-11-12T12:59:28.913Z,1.30
2022-11-12T13:02:26.126Z,1.23
2022-11-12T13:08:27.986Z,0.88
2022-11-12T13:12:00.449Z,1.85
2022-11-12T13:15:10.314Z,0.30
2022-11-12T13:18:04.880Z,0.10
2022-11-12T13:21:15.537Z,0.17
2022-11-12T13:24:14.807Z,0.22
2022-11-12T13:27:09.358Z,0.35
2022-11-12T13:30:03.731Z,0.30
2022-11-12T13:32:59.982Z,0.20
2022-11-12T13:36:14.070Z,0.20
2022-11-12T13:39:20.234Z,1.85
2022-11-12T13:42:38.243Z,0.32
2022-11-12T13:45:35.140Z,1.35
2022-11-12T13:48:40.533Z,0.88
2022-11-12T13:51:40.680Z,0.50
2022-11-12T13:54:37.662Z,0.20
2022-11-12T13:57:33.929Z,0.38
2022-11-12T14:00:30.561Z,0.47
2022-11-12T14:03:27.606Z,0.25
2022-11-12T14:06:40.364Z,0.20
2022-11-12T14:09:52.982Z,0.30
2022-11-12T14:12:47.338Z,0.47
2022-11-12T14:15:52.424Z,0.38
2022-11-12T14:19:20.360Z,0.20
2022-11-12T14:22:20.191Z,0.40
2022-11-12T14:25:20.411Z,0.93
2022-11-12T14:28:38.600Z,1.10
2022-11-12T14:34:33.673Z,0.55
2022-11-12T14:37:43.292Z,0.35
2022-11-12T14:40:44.238Z,0.45
2022-11-12T14:44:11.035Z,0.50
2022-11-12T14:47:06.930Z,1.38
2022-11-12T14:50:01.381Z,1.40
2022-11-12T14:53:09.775Z,3.53
2022-11-12T14:56:08.251Z,3.05
2022-11-12T14:59:03.032Z,1.67
2022-11-12T15:02:34.284Z,2.92
2022-11-12T15:05:35.631Z,1.75
2022-11-12T15:08:38.681Z,2.80
2022-11-12T15:11:48.653Z,0.85
2022-11-12T15:14:43.766Z,3.78
2022-11-12T15:17:39.498Z,1.00
2022-11-12T15:20:34.026Z,1.63
2022-11-12T15:23:28.657Z,2.55
2022-11-12T15:26:37.481Z,0.40
2022-11-12T15:29:37.291Z,1.88
2022-11-12T15:32:36.015Z,3.65
2022-11-12T15:35:34.417Z,1.75
2022-11-12T15:38:39.710Z,1.10
2022-11-12T15:41:36.455Z,1.80
2022-11-12T15:44:36.080Z,8.82
2022-11-12T15:47:30.611Z,8.30
2022-11-12T15:50:26.382Z,9.55
2022-11-12T15:53:20.815Z,5.82
2022-11-12T15:56:19.003Z,5.18
2022-11-12T15:59:20.058Z,8.90
2022-11-12T16:02:17.700Z,5.55
2022-11-12T16:05:16.783Z,9.50
2022-11-12T16:08:11.569Z,13.57
2022-11-12T16:11:26.019Z,11.65
2022-11-12T16:14:24.634Z,9.77
2022-11-12T16:17:20.894Z,10.13
2022-11-12T16:20:22.543Z,9.20
2022-11-12T16:23:17.210Z,7.15
2022-11-12T16:26:16.448Z,10.07
2022-11-12T16:29:17.740Z,11.02
2022-11-12T16:32:16.533Z,6.78
2022-11-12T16:35:12.357Z,10.90
2022-11-12T16:38:15.748Z,9.82
2022-11-12T16:41:14.526Z,7.75
2022-11-12T16:44:08.894Z,9.10
2022-11-12T16:47:05.940Z,13.98
2022-11-12T16:50:00.279Z,6.97
2022-11-12T16:52:55.115Z,13.00
2022-11-12T16:55:49.507Z,11.15
2022-11-12T16:58:43.854Z,7.78
2022-11-12T17:01:38.283Z,7.25
2022-11-12T17:04:32.691Z,8.68
2022-11-12T17:07:27.062Z,12.55
2022-11-12T17:10:25.174Z,12.05
2022-11-12T17:13:19.680Z,7.93
2022-11-12T17:16:14.372Z,8.02
2022-11-12T17:19:08.725Z,8.23
2022-11-12T17:22:03.176Z,7.28
2022-11-12T17:24:57.527Z,5.22
2022-11-12T17:27:52.015Z,9.70
2022-11-12T17:30:46.413Z,5.05
2022-11-12T17:33:42.923Z,7.88
2022-11-12T17:36:42.305Z,4.97
2022-11-12T17:39:38.052Z,10.20
2022-11-12T17:42:32.443Z,9.98
2022-11-12T17:45:26.807Z,9.32
2022-11-12T17:48:22.007Z,6.63
2022-11-12T17:51:19.209Z,9.82
2022-11-12T17:54:13.559Z,7.50
2022-11-12T17:57:08.106Z,9.70
2022-11-12T18:00:02.439Z,7.82
2022-11-12T18:03:00.431Z,6.82
2022-11-12T18:05:59.811Z,7.47
2022-11-12T18:09:02.652Z,7.15
2022-11-12T18:11:57.857Z,8.15
2022-11-12T18:14:52.251Z,8.93
2022-11-12T18:17:46.707Z,10.40
2022-11-12T18:20:41.398Z,10.18
2022-11-12T18:23:42.307Z,10.45
2022-11-12T18:26:36.949Z,10.13
2022-11-12T18:29:31.308Z,10.15
2022-11-12T18:32:25.806Z,8.13
2022-11-12T18:35:20.152Z,10.40
2022-11-12T18:38:14.806Z,9.20
2022-11-12T18:41:17.238Z,12.45
2022-11-12T18:44:11.827Z,8.80
2022-11-12T18:47:06.223Z,8.15
2022-11-12T18:50:05.482Z,9.48
2022-11-12T18:53:02.685Z,8.35
2022-11-12T18:56:00.201Z,7.75
2022-11-12T18:58:54.540Z,7.18
2022-11-12T19:01:48.898Z,6.05
2022-11-12T19:04:45.514Z,5.47
2022-11-12T19:07:40.167Z,6.05
2022-11-12T19:10:34.551Z,6.88
2022-11-12T19:13:30.269Z,9.55
2022-11-12T19:16:25.746Z,9.25
2022-11-12T19:19:20.192Z,5.68
2022-11-12T19:22:14.624Z,4.63
2022-11-12T19:25:09.416Z,5.55
2022-11-12T19:28:03.900Z,5.88
2022-11-12T19:30:59.035Z,5.05
2022-11-12T19:33:53.652Z,4.15
2022-11-12T19:36:48.465Z,4.63
2022-11-12T19:39:47.520Z,7.10
2022-11-12T19:42:41.921Z,5.05
2022-11-12T19:45:36.327Z,6.47
2022-11-12T19:48:32.162Z,5.63
2022-11-12T19:51:26.606Z,4.78
2022-11-12T19:54:21.371Z,4.85
2022-11-12T19:57:15.948Z,8.00
2022-11-12T20:00:12.095Z,4.72
2022-11-12T20:03:06.969Z,8.15
2022-11-12T20:06:06.942Z,4.50
2022-11-12T20:09:01.773Z,4.95
2022-11-12T20:11:56.216Z,5.15
2022-11-12T20:14:50.630Z,3.97
2022-11-12T20:17:45.103Z,4.18
2022-11-12T20:20:39.485Z,4.28
2022-11-12T20:23:35.282Z,3.45
2022-11-12T20:26:30.294Z,3.30
2022-11-12T20:29:24.659Z,3.50
2022-11-12T20:32:20.370Z,4.22
2022-11-12T20:35:20.941Z,1.58
2022-11-12T20:38:16.547Z,5.30
2022-11-12T20:41:16.131Z,4.50
2022-11-12T20:44:10.596Z,3.47
2022-11-12T20:47:05.000Z,3.47
2022-11-12T20:49:59.335Z,6.35
2022-11-12T20:52:53.815Z,6.57
2022-11-12T20:55:48.213Z,3.30
2022-11-12T20:58:43.375Z,2.03
2022-11-12T21:01:37.956Z,3.90
2022-11-12T21:04:32.468Z,5.07
2022-11-12T21:07:26.947Z,5.88
2022-11-12T21:10:21.450Z,3.50
2022-11-12T21:13:17.193Z,4.90
2022-11-12T21:16:12.763Z,4.10
2022-11-12T21:19:07.630Z,6.72
2022-11-12T21:22:02.035Z,2.17
2022-11-12T21:24:56.502Z,3.30
2022-11-12T21:27:50.870Z,2.92
2022-11-12T21:30:45.265Z,3.80
2022-11-12T21:33:39.834Z,1.63
2022-11-12T21:36:36.688Z,0.88
2022-11-12T21:39:31.232Z,1.10
2022-11-12T21:42:25.630Z,1.98
2022-11-12T21:45:20.126Z,1.60
2022-11-12T21:48:14.587Z,4.05
2022-11-12T21:51:11.680Z,2.97
2022-11-12T21:54:08.874Z,2.58
2022-11-12T21:57:03.372Z,2.35
2022-11-12T22:00:08.201Z,1.40
2022-11-12T22:03:12.825Z,2.58
2022-11-12T22:06:08.483Z,1.35
2022-11-12T22:09:02.936Z,2.47
2022-11-12T22:11:57.373Z,0.60
2022-11-12T22:14:54.366Z,3.28
2022-11-12T22:17:48.843Z,1.83
2022-11-12T22:20:43.252Z,0.98
2022-11-12T22:23:37.782Z,1.05
2022-11-12T22:26:32.266Z,2.10
2022-11-12T22:29:26.727Z,2.20
2022-11-12T22:32:21.311Z,1.50
2022-11-12T22:35:15.685Z,2.45
2022-11-12T22:38:10.463Z,1.30
2022-11-12T22:41:16.887Z,2.30
2022-11-12T22:44:11.402Z,2.78
2022-11-12T22:47:05.908Z,2.50
2022-11-12T22:50:00.342Z,1.95
2022-11-12T22:52:54.687Z,1.98
2022-11-12T22:55:49.091Z,1.45
2022-11-12T22:58:48.260Z,0.98
2022-11-12T23:01:42.825Z,1.13
2022-11-12T23:04:37.219Z,1.92
2022-11-12T23:07:31.627Z,3.78
2022-11-12T23:10:25.959Z,1.63
2022-11-12T23:13:20.373Z,1.75
2022-11-12T23:16:21.583Z,0.98
2022-11-12T23:19:16.155Z,1.27
2022-11-12T23:22:10.532Z,1.45
2022-11-12T23:25:04.931Z,1.17
2022-11-12T23:27:59.257Z,4.47
2022-11-12T23:30:53.644Z,2.03
2022-11-12T23:33:53.423Z,2.13
2022-11-12T23:36:36.721Z,1.92
2022-11-12T23:39:31.111Z,3.00
2022-11-12T23:42:25.604Z,1.52
2022-11-12T23:45:20.019Z,4.05
2022-11-12T23:48:14.438Z,3.10
2022-11-12T23:51:16.344Z,3.33
2022-11-12T23:54:12.297Z,2.60
2022-11-12T23:57:06.751Z,3.58
